createdAt,value
2022-12-01T00:03:26.665Z,8.50
2022-12-01T00:08:29.734Z,8.40
2022-12-01T00:13:32.472Z,8.30
2022-12-01T00:18:34.864Z,8.80
2022-12-01T00:23:37.245Z,8.30
2022-12-01T00:28:41.033Z,8.30
2022-12-01T00:33:43.569Z,8.40
2022-12-01T00:38:46.827Z,8.80
2022-12-01T00:43:49.445Z,8.70
2022-12-01T00:48:51.801Z,9.50
2022-12-01T00:53:54.259Z,9.30
2022-12-01T00:58:56.711Z,9.10
2022-12-01T01:03:59.057Z,9.10
2022-12-01T01:09:01.527Z,8.90
2022-12-01T01:14:04.410Z,8.40
2022-12-01T01:19:07.031Z,8.00
2022-12-01T01:24:09.695Z,7.80
2022-12-01T01:29:12.251Z,7.50
2022-12-01T01:34:15.313Z,7.40
2022-12-01T01:39:18.913Z,7.40
2022-12-01T01:44:47.105Z,7.10
2022-12-01T01:49:50.102Z,6.90
2022-12-01T01:54:55.007Z,7.00
2022-12-01T02:00:15.198Z,7.30
2022-12-01T02:05:25.281Z,7.40
2022-12-01T02:11:04.219Z,7.50
2022-12-01T02:16:16.259Z,7.30
2022-12-01T02:21:37.021Z,7.10
2022-12-01T02:26:58.103Z,7.30
2022-12-01T02:32:15.339Z,6.70
2022-12-01T02:37:26.823Z,6.50
2022-12-01T02:43:03.305Z,6.60
2022-12-01T02:48:12.445Z,6.60
2022-12-01T02:53:18.715Z,5.50
2022-12-01T02:58:21.938Z,6.10
2022-12-01T03:03:58.711Z,6.50
2022-12-01T03:09:30.681Z,6.20
2022-12-01T03:15:13.825Z,6.40
2022-12-01T03:20:27.845Z,6.80
2022-12-01T03:25:31.634Z,6.80
2022-12-01T03:30:36.786Z,7.00
2022-12-01T03:35:51.012Z,7.20
2022-12-01T03:40:59.654Z,7.50
2022-12-01T03:46:44.784Z,7.70
2022-12-01T03:51:56.160Z,8.10
2022-12-01T03:57:05.999Z,8.40
2022-12-01T04:02:08.712Z,8.30
2022-12-01T04:07:13.566Z,8.00
2022-12-01T04:12:31.267Z,8.60
2022-12-01T04:17:34.314Z,8.80
2022-12-01T04:22:36.989Z,8.40
2022-12-01T04:27:39.913Z,8.00
2022-12-01T04:32:43.528Z,8.40
2022-12-01T04:37:45.903Z,8.20
2022-12-01T04:42:48.285Z,8.20
2022-12-01T04:47:53.032Z,8.30
2022-12-01T04:52:55.535Z,8.50
2022-12-01T04:57:58.266Z,8.60
2022-12-01T05:03:00.710Z,8.40
2022-12-01T05:08:03.291Z,8.60
2022-12-01T05:13:06.326Z,8.20
2022-12-01T05:18:08.702Z,7.80
2022-12-01T05:23:16.493Z,7.20
2022-12-01T05:28:20.035Z,7.70
2022-12-01T05:33:23.800Z,7.70
2022-12-01T05:38:26.231Z,8.20
2022-12-01T05:43:29.769Z,8.20
2022-12-01T05:48:32.371Z,8.10
2022-12-01T05:53:34.833Z,8.40
2022-12-01T05:58:38.046Z,8.20
2022-12-01T06:03:40.394Z,8.10
2022-12-01T06:08:42.962Z,8.10
2022-12-01T06:13:45.454Z,7.90
2022-12-01T06:18:47.863Z,8.30
2022-12-01T06:23:50.237Z,8.60
2022-12-01T06:28:52.579Z,7.90
2022-12-01T06:33:55.066Z,7.90
2022-12-01T06:38:57.383Z,7.20
2022-12-01T06:44:00.973Z,7.20
2022-12-01T06:49:03.602Z,7.40
2022-12-01T06:54:06.318Z,7.60
2022-12-01T06:59:08.968Z,7.80
2022-12-01T07:04:11.853Z,7.50
2022-12-01T07:09:14.306Z,5.10
2022-12-01T07:14:25.183Z,6.80
2022-12-01T07:19:27.985Z,6.40
2022-12-01T07:24:33.389Z,6.80
2022-12-01T07:29:35.862Z,8.00
2022-12-01T07:34:38.373Z,7.10
2022-12-01T07:39:40.772Z,6.30
2022-12-01T07:44:43.149Z,6.50
2022-12-01T07:49:45.654Z,6.00
2022-12-01T07:54:48.211Z,6.60
2022-12-01T07:59:50.998Z,6.30
2022-12-01T08:04:53.594Z,6.70
2022-12-01T08:09:56.135Z,7.40
2022-12-01T08:14:58.651Z,7.50
2022-12-01T08:20:01.143Z,6.60
2022-12-01T08:25:04.045Z,6.50
2022-12-01T08:30:07.282Z,5.90
2022-12-01T08:35:09.824Z,6.00
2022-12-01T08:40:12.801Z,6.40
2022-12-01T08:45:15.196Z,6.00
2022-12-01T08:50:17.793Z,5.00
2022-12-01T08:55:22.006Z,6.20
2022-12-01T09:00:25.789Z,6.00
2022-12-01T09:05:28.570Z,5.60
2022-12-01T09:10:31.028Z,5.60
2022-12-01T09:15:34.234Z,5.30
2022-12-01T09:20:36.722Z,5.40
2022-12-01T09:25:39.146Z,6.00
2022-12-01T09:30:41.595Z,6.40
2022-12-01T09:35:44.013Z,7.10
2022-12-01T09:40:46.642Z,6.30
2022-12-01T09:45:55.604Z,6.70
2022-12-01T09:50:58.244Z,7.10
2022-12-01T09:56:07.190Z,7.40
2022-12-01T10:01:20.717Z,7.80
2022-12-01T10:06:37.293Z,8.10
2022-12-01T10:11:42.382Z,7.80
2022-12-01T10:17:07.339Z,8.20
2022-12-01T10:22:39.866Z,7.50
2022-12-01T10:27:58.424Z,7.50
2022-12-01T10:33:25.636Z,8.00
2022-12-01T10:38:35.326Z,8.70
2022-12-01T10:43:44.700Z,8.20
2022-12-01T10:48:58.732Z,9.00
2022-12-01T10:54:08.262Z,9.40
2022-12-01T10:59:49.196Z,9.60
2022-12-01T11:05:07.598Z,9.40
2022-12-01T11:10:12.735Z,8.60
2022-12-01T11:15:49.341Z,9.10
2022-12-01T11:21:14.396Z,9.20
2022-12-01T11:26:21.164Z,8.70
2022-12-01T11:31:37.927Z,8.70
2022-12-01T11:36:46.170Z,9.00
2022-12-01T11:41:54.631Z,8.50
2022-12-01T11:47:21.582Z,9.00
2022-12-01T11:52:28.168Z,8.80
2022-12-01T11:57:34.494Z,8.20
2022-12-01T12:02:45.137Z,7.90
2022-12-01T12:08:08.818Z,8.70
2022-12-01T12:13:17.219Z,8.30
2022-12-01T12:18:44.539Z,8.30
2022-12-01T12:24:43.627Z,8.70
2022-12-01T12:30:02.163Z,8.30
2022-12-01T12:35:40.406Z,8.10
2022-12-01T12:40:55.049Z,8.80
2022-12-01T12:46:19.934Z,8.80
2022-12-01T12:51:34.024Z,8.90
2022-12-01T12:56:37.184Z,8.30
2022-12-01T13:01:50.511Z,7.40
2022-12-01T13:07:22.371Z,7.90
2022-12-01T13:12:24.787Z,8.20
2022-12-01T13:17:39.960Z,8.10
2022-12-01T13:22:43.093Z,8.70
2022-12-01T13:27:47.487Z,8.70
2022-12-01T13:32:57.628Z,8.70
2022-12-01T13:38:23.089Z,8.40
2022-12-01T13:43:25.997Z,8.80
2022-12-01T13:48:37.530Z,8.80
2022-12-01T13:54:03.558Z,8.50
2022-12-01T14:00:01.227Z,8.80
2022-12-01T14:05:22.372Z,8.20
2022-12-01T14:10:28.942Z,6.80
2022-12-01T14:15:42.672Z,6.70
2022-12-01T14:20:47.434Z,7.50
2022-12-01T14:26:10.802Z,7.40
2022-12-01T14:31:13.994Z,8.30
2022-12-01T14:36:38.203Z,8.80
2022-12-01T14:47:25.814Z,8.70
2022-12-01T14:52:34.053Z,8.20
2022-12-01T14:57:43.189Z,8.10
2022-12-01T15:02:59.482Z,7.70
2022-12-01T15:08:40.959Z,8.10
2022-12-01T15:13:56.103Z,9.40
2022-12-01T15:18:59.097Z,10.00
2022-12-01T15:24:23.818Z,10.30
2022-12-01T15:29:40.038Z,10.10
2022-12-01T15:34:44.643Z,9.60
2022-12-01T15:39:53.735Z,8.90
2022-12-01T15:45:00.992Z,8.80
2022-12-01T15:50:05.415Z,8.90
2022-12-01T15:55:30.535Z,9.60
2022-12-01T16:00:33.259Z,9.10
2022-12-01T16:05:36.370Z,9.20
2022-12-01T16:10:39.260Z,8.60
2022-12-01T16:15:44.665Z,8.40
2022-12-01T16:20:47.370Z,8.50
2022-12-01T16:25:49.813Z,8.20
2022-12-01T16:30:52.931Z,8.40
2022-12-01T16:35:58.801Z,8.40
2022-12-01T16:41:14.207Z,9.10
2022-12-01T16:46:16.783Z,8.70
2022-12-01T16:51:29.492Z,9.60
2022-12-01T16:56:32.907Z,9.00
2022-12-01T17:01:35.386Z,8.90
2022-12-01T17:06:38.498Z,9.10
2022-12-01T17:11:40.973Z,9.40
2022-12-01T17:16:43.479Z,9.00
2022-12-01T17:21:46.960Z,8.70
2022-12-01T17:26:49.310Z,9.40
2022-12-01T17:31:52.038Z,9.40
2022-12-01T17:36:54.480Z,8.90
2022-12-01T17:41:57.281Z,8.50
2022-12-01T17:46:59.717Z,7.90
2022-12-01T17:52:02.586Z,7.30
2022-12-01T17:57:09.754Z,7.60
2022-12-01T18:02:13.221Z,7.90
2022-12-01T18:07:15.685Z,8.00
2022-12-01T18:12:18.214Z,8.40
2022-12-01T18:17:20.711Z,8.60
2022-12-01T18:22:23.371Z,8.40
2022-12-01T18:27:25.746Z,8.30
2022-12-01T18:32:28.233Z,8.50
2022-12-01T18:37:30.778Z,8.60
2022-12-01T18:42:33.362Z,8.90
2022-12-01T18:47:35.796Z,8.80
2022-12-01T18:52:38.532Z,8.60
2022-12-01T18:57:40.981Z,8.80
2022-12-01T19:02:43.674Z,8.70
2022-12-01T19:07:46.233Z,8.90
2022-12-01T19:12:48.969Z,8.90
2022-12-01T19:17:51.516Z,8.90
2022-12-01T19:22:54.129Z,8.70
2022-12-01T19:27:56.849Z,8.60
2022-12-01T19:32:59.463Z,8.90
2022-12-01T19:38:02.284Z,8.50
2022-12-01T19:43:06.063Z,7.80
2022-12-01T19:48:08.556Z,7.20
2022-12-01T19:53:11.044Z,7.60
2022-12-01T19:58:13.497Z,8.00
2022-12-01T20:03:15.962Z,8.30
2022-12-01T20:08:18.326Z,8.60
2022-12-01T20:13:20.753Z,8.80
2022-12-01T20:18:23.203Z,9.10
2022-12-01T20:28:50.700Z,8.70
2022-12-01T20:33:55.705Z,7.80
2022-12-01T20:38:58.662Z,8.40
2022-12-01T20:44:07.275Z,8.90
2022-12-01T20:49:10.197Z,9.10
2022-12-01T20:54:30.448Z,8.60
2022-12-01T20:59:35.288Z,8.90
2022-12-01T21:04:37.828Z,9.80
2022-12-01T21:09:40.374Z,9.40
2022-12-01T21:14:47.461Z,9.10
2022-12-01T21:20:01.806Z,9.40
2022-12-01T21:25:15.566Z,9.20
2022-12-01T21:30:25.978Z,9.10
2022-12-01T21:35:28.618Z,8.70
2022-12-01T21:40:31.339Z,8.30
2022-12-01T21:51:23.249Z,8.60
2022-12-01T21:56:28.215Z,8.50
2022-12-01T22:01:32.422Z,7.90
2022-12-01T22:06:39.622Z,8.00
2022-12-01T22:11:51.849Z,8.30
2022-12-01T22:16:58.354Z,8.60
2022-12-01T22:22:24.809Z,8.80
2022-12-01T22:27:32.183Z,8.80
2022-12-01T22:32:40.666Z,8.40
2022-12-01T22:37:48.906Z,8.70
2022-12-01T22:42:51.346Z,8.70
2022-12-01T22:48:02.120Z,8.40
2022-12-01T22:53:14.946Z,8.40
2022-12-01T22:58:25.217Z,8.20
2022-12-01T23:03:28.143Z,8.40
2022-12-01T23:08:30.512Z,8.40
2022-12-01T23:13:34.772Z,8.80
2022-12-01T23:18:37.217Z,8.50
2022-12-01T23:23:40.000Z,8.90
2022-12-01T23:28:42.416Z,9.00
2022-12-01T23:33:44.819Z,8.70
2022-12-01T23:38:52.593Z,8.30
2022-12-01T23:43:58.694Z,8.70
2022-12-01T23:49:09.899Z,8.70
2022-12-01T23:54:23.621Z,8.60
2022-12-01T23:59:27.370Z,8.30
